createdAt,value
2022-08-27T00:01:17.665Z,9.70
2022-08-27T00:03:19.718Z,10.43
2022-08-27T00:05:21.774Z,9.73
2022-08-27T00:07:23.541Z,9.48
2022-08-27T00:09:26.993Z,11.75
2022-08-27T00:11:29.260Z,9.70
2022-08-27T00:13:31.102Z,9.10
2022-08-27T00:15:33.448Z,11.55
2022-08-27T00:17:35.534Z,11.05
2022-08-27T00:19:37.958Z,9.52
2022-08-27T00:21:39.807Z,8.85
2022-08-27T00:23:41.663Z,9.73
2022-08-27T00:25:43.426Z,8.30
2022-08-27T00:27:45.233Z,10.85
2022-08-27T00:29:48.046Z,11.38
2022-08-27T00:33:56.738Z,11.75
2022-08-27T00:35:58.879Z,10.30
2022-08-27T00:38:01.309Z,12.02
2022-08-27T00:40:06.063Z,10.63
2022-08-27T00:42:08.243Z,11.52
2022-08-27T00:44:11.038Z,11.05
2022-08-27T00:46:27.205Z,14.40
2022-08-27T00:48:32.021Z,12.27
2022-08-27T00:50:43.973Z,9.43
2022-08-27T00:52:51.439Z,10.30
2022-08-27T00:55:01.918Z,11.98
2022-08-27T00:57:04.816Z,11.95
2022-08-27T00:59:06.639Z,9.45
2022-08-27T01:01:12.537Z,12.77
2022-08-27T01:03:15.295Z,8.85
2022-08-27T01:05:23.091Z,10.52
2022-08-27T01:07:28.620Z,9.23
2022-08-27T01:09:30.851Z,13.00
2022-08-27T01:11:33.263Z,13.63
2022-08-27T01:13:54.495Z,11.13
2022-08-27T01:15:59.218Z,9.57
2022-08-27T01:18:05.188Z,12.68
2022-08-27T01:20:13.760Z,9.40
2022-08-27T01:22:36.984Z,11.38
2022-08-27T01:24:43.054Z,9.73
2022-08-27T01:26:46.730Z,10.75
2022-08-27T01:28:49.251Z,11.48
2022-08-27T01:30:51.755Z,10.88
2022-08-27T01:32:54.815Z,11.35
2022-08-27T01:34:58.912Z,13.40
2022-08-27T01:37:00.695Z,10.80
2022-08-27T01:39:02.524Z,10.15
2022-08-27T01:41:04.378Z,11.75
2022-08-27T01:43:06.320Z,11.80
2022-08-27T01:45:09.962Z,9.47
2022-08-27T01:47:11.895Z,9.68
2022-08-27T01:49:13.692Z,15.00
2022-08-27T01:51:16.058Z,10.95
2022-08-27T01:53:22.954Z,12.90
2022-08-27T01:55:26.562Z,10.20
2022-08-27T01:57:28.639Z,13.20
2022-08-27T01:59:39.430Z,11.48
2022-08-27T02:01:41.876Z,11.00
2022-08-27T02:03:44.652Z,11.55
2022-08-27T02:07:49.612Z,13.77
2022-08-27T02:09:52.123Z,11.00
2022-08-27T02:11:54.103Z,12.68
2022-08-27T02:13:55.890Z,14.13
2022-08-27T02:15:57.778Z,14.55
2022-08-27T02:17:59.970Z,13.13
2022-08-27T02:20:02.225Z,12.75
2022-08-27T02:22:04.158Z,14.88
2022-08-27T02:24:06.160Z,15.10
2022-08-27T02:26:08.324Z,14.75
2022-08-27T02:28:10.343Z,12.48
2022-08-27T02:30:14.678Z,15.05
2022-08-27T02:32:22.818Z,11.57
2022-08-27T02:34:33.716Z,13.80
2022-08-27T02:36:37.283Z,14.17
2022-08-27T02:38:39.446Z,12.70
2022-08-27T02:40:41.506Z,12.32
2022-08-27T02:42:44.490Z,13.88
2022-08-27T02:44:46.634Z,12.05
2022-08-27T02:46:48.689Z,13.23
2022-08-27T02:48:53.738Z,10.15
2022-08-27T02:50:55.962Z,10.23
2022-08-27T02:52:57.945Z,10.15
2022-08-27T02:55:00.034Z,12.63
2022-08-27T02:57:02.389Z,11.43
2022-08-27T02:59:05.132Z,8.53
2022-08-27T03:03:15.554Z,7.82
2022-08-27T03:05:18.210Z,6.75
2022-08-27T03:09:21.983Z,7.47
2022-08-27T03:11:24.087Z,5.50
2022-08-27T03:13:26.237Z,5.07
2022-08-27T03:15:28.177Z,6.03
2022-08-27T03:17:48.444Z,6.07
2022-08-27T03:19:50.666Z,4.60
2022-08-27T03:21:54.837Z,4.25
2022-08-27T03:23:56.964Z,4.30
2022-08-27T03:26:02.387Z,3.75
2022-08-27T03:28:04.695Z,4.70
2022-08-27T03:30:15.953Z,5.20
2022-08-27T03:32:17.732Z,4.20
2022-08-27T03:34:19.751Z,3.97
2022-08-27T03:36:21.894Z,3.53
2022-08-27T03:38:24.052Z,5.07
2022-08-27T03:40:25.866Z,4.25
2022-08-27T03:42:27.967Z,3.97
2022-08-27T03:44:30.122Z,3.67
2022-08-27T03:46:31.951Z,3.75
2022-08-27T03:48:34.372Z,4.00
2022-08-27T03:50:43.294Z,3.45
2022-08-27T03:52:45.096Z,4.38
2022-08-27T03:54:46.888Z,4.78
2022-08-27T03:56:49.083Z,4.72
2022-08-27T03:58:51.061Z,4.15
2022-08-27T04:00:52.863Z,4.43
2022-08-27T04:02:55.832Z,4.80
2022-08-27T04:04:57.822Z,4.93
2022-08-27T04:06:59.691Z,4.13
2022-08-27T04:09:01.593Z,5.50
2022-08-27T04:11:07.389Z,9.27
2022-08-27T04:13:09.158Z,4.80
2022-08-27T04:15:12.735Z,4.88
2022-08-27T04:17:14.489Z,5.53
2022-08-27T04:19:16.254Z,4.80
2022-08-27T04:21:17.989Z,5.40
2022-08-27T04:23:20.119Z,5.65
2022-08-27T04:25:21.946Z,4.82
2022-08-27T04:27:25.633Z,6.40
2022-08-27T04:29:27.724Z,5.40
2022-08-27T04:31:29.600Z,5.80
2022-08-27T04:33:32.412Z,6.03
2022-08-27T04:37:36.184Z,4.72
2022-08-27T04:39:38.171Z,4.88
2022-08-27T04:41:39.973Z,4.80
2022-08-27T04:43:42.673Z,4.20
2022-08-27T04:47:46.758Z,5.05
2022-08-27T04:49:48.580Z,4.93
2022-08-27T04:51:50.855Z,4.80
2022-08-27T04:53:52.821Z,5.03
2022-08-27T04:55:56.782Z,5.47
2022-08-27T04:57:58.558Z,5.05
2022-08-27T05:00:00.515Z,5.80
2022-08-27T05:02:04.934Z,6.13
2022-08-27T05:04:07.686Z,5.13
2022-08-27T05:06:09.674Z,4.65
2022-08-27T05:08:14.528Z,4.18
2022-08-27T05:10:16.315Z,4.07
2022-08-27T05:12:18.069Z,4.28
2022-08-27T05:14:20.445Z,3.58
2022-08-27T05:16:23.433Z,5.45
2022-08-27T05:18:25.254Z,3.83
2022-08-27T05:20:31.668Z,4.40
2022-08-27T05:22:33.419Z,4.07
2022-08-27T05:24:35.250Z,4.43
2022-08-27T05:26:37.579Z,4.30
2022-08-27T05:28:39.409Z,4.28
2022-08-27T05:30:44.798Z,4.82
2022-08-27T05:32:51.135Z,4.93
2022-08-27T05:34:52.984Z,3.90
2022-08-27T05:36:54.850Z,3.97
2022-08-27T05:38:58.556Z,3.90
2022-08-27T05:41:09.162Z,3.95
2022-08-27T05:43:15.794Z,4.10
2022-08-27T05:45:17.706Z,3.15
2022-08-27T05:47:19.474Z,3.60
2022-08-27T05:49:21.594Z,3.13
2022-08-27T05:51:26.365Z,4.65
2022-08-27T05:53:28.205Z,3.72
2022-08-27T05:55:30.011Z,3.45
2022-08-27T05:57:31.792Z,3.42
2022-08-27T05:59:52.390Z,3.47
2022-08-27T06:01:55.528Z,4.82
2022-08-27T06:03:57.798Z,3.78
2022-08-27T06:06:04.744Z,3.50
2022-08-27T06:08:06.827Z,4.13
2022-08-27T06:10:09.472Z,3.80
2022-08-27T06:12:11.245Z,4.32
2022-08-27T06:14:13.786Z,3.42
2022-08-27T06:16:17.899Z,4.38
2022-08-27T06:18:19.689Z,3.75
2022-08-27T06:20:21.790Z,4.32
2022-08-27T06:22:24.322Z,3.50
2022-08-27T06:24:26.175Z,3.40
2022-08-27T06:26:28.448Z,5.55
2022-08-27T06:28:31.329Z,5.97
2022-08-27T06:30:33.124Z,3.65
2022-08-27T06:32:35.017Z,3.78
2022-08-27T06:34:38.107Z,3.37
2022-08-27T06:36:41.799Z,5.45
2022-08-27T06:38:43.688Z,3.40
2022-08-27T06:40:46.476Z,3.53
2022-08-27T06:42:48.530Z,3.00
2022-08-27T06:44:50.426Z,3.70
2022-08-27T06:46:52.577Z,4.83
2022-08-27T06:48:56.871Z,5.00
2022-08-27T06:50:58.971Z,4.13
2022-08-27T06:53:00.782Z,7.03
2022-08-27T06:55:02.872Z,5.32
2022-08-27T06:57:04.799Z,6.25
2022-08-27T06:59:11.716Z,6.00
2022-08-27T07:01:21.166Z,9.07
2022-08-27T07:03:22.968Z,6.93
2022-08-27T07:05:25.988Z,7.15
2022-08-27T07:07:35.556Z,8.10
2022-08-27T07:09:40.216Z,8.77
2022-08-27T07:11:42.298Z,8.50
2022-08-27T07:13:46.938Z,8.20
2022-08-27T07:15:48.833Z,8.50
2022-08-27T07:17:52.567Z,8.40
2022-08-27T07:19:54.434Z,8.40
2022-08-27T07:21:56.474Z,7.60
2022-08-27T07:23:59.829Z,8.30
2022-08-27T07:26:02.066Z,9.32
2022-08-27T07:28:04.070Z,9.45
2022-08-27T07:30:07.813Z,8.48
2022-08-27T07:32:09.748Z,9.38
2022-08-27T07:34:11.620Z,11.43
2022-08-27T07:36:13.887Z,9.27
2022-08-27T07:38:16.133Z,11.45
2022-08-27T07:40:18.347Z,10.98
2022-08-27T07:42:38.585Z,11.73
2022-08-27T07:44:40.385Z,8.63
2022-08-27T07:46:47.409Z,9.23
2022-08-27T07:48:50.925Z,9.90
2022-08-27T07:52:54.525Z,9.95
2022-08-27T07:54:56.437Z,9.25
2022-08-27T07:56:59.226Z,9.33
2022-08-27T07:59:01.186Z,9.55
2022-08-27T08:01:03.371Z,9.50
2022-08-27T08:03:05.216Z,8.77
2022-08-27T08:05:07.371Z,9.70
2022-08-27T08:07:09.595Z,9.98
2022-08-27T08:09:11.409Z,7.20
2022-08-27T08:11:15.925Z,7.63
2022-08-27T08:13:18.557Z,8.18
2022-08-27T08:15:20.619Z,8.25
2022-08-27T08:17:22.950Z,7.93
2022-08-27T08:19:25.029Z,8.27
2022-08-27T08:21:26.874Z,7.53
2022-08-27T08:23:29.192Z,8.80
2022-08-27T08:25:34.608Z,7.35
2022-08-27T08:27:42.282Z,6.68
2022-08-27T08:29:44.194Z,7.55
2022-08-27T08:31:50.145Z,8.13
2022-08-27T08:33:52.860Z,6.57
2022-08-27T08:35:54.879Z,6.40
2022-08-27T08:37:56.709Z,7.85
2022-08-27T08:39:58.603Z,7.23
2022-08-27T08:42:03.017Z,7.23
2022-08-27T08:44:16.823Z,7.53
2022-08-27T08:46:33.961Z,7.32
2022-08-27T08:48:42.690Z,6.60
2022-08-27T08:51:22.900Z,6.45
2022-08-27T08:53:41.021Z,6.93
2022-08-27T08:55:48.752Z,8.20
2022-08-27T08:58:34.775Z,10.20
2022-08-27T09:00:39.408Z,6.72
2022-08-27T09:02:50.325Z,9.77
2022-08-27T09:04:52.121Z,8.75
2022-08-27T09:06:56.751Z,7.53
2022-08-27T09:09:04.501Z,7.20
2022-08-27T09:11:40.678Z,7.35
2022-08-27T09:13:48.025Z,7.28
2022-08-27T09:15:54.213Z,6.25
2022-08-27T09:18:28.116Z,7.03
2022-08-27T09:23:11.010Z,7.45
2022-08-27T09:25:28.437Z,7.43
2022-08-27T09:27:32.006Z,7.72
2022-08-27T09:29:34.099Z,7.40
2022-08-27T09:31:40.934Z,6.70
2022-08-27T09:33:56.298Z,6.07
2022-08-27T09:36:03.930Z,5.75
2022-08-27T09:38:05.733Z,7.45
2022-08-27T09:40:23.291Z,6.10
2022-08-27T09:42:37.964Z,5.97
2022-08-27T09:44:53.409Z,5.60
2022-08-27T09:46:58.691Z,6.55
2022-08-27T09:49:11.461Z,6.43
2022-08-27T09:51:21.937Z,5.88
2022-08-27T09:53:53.222Z,5.15
2022-08-27T09:55:57.363Z,8.15
2022-08-27T09:58:00.653Z,6.45
2022-08-27T10:00:03.965Z,5.65
2022-08-27T10:02:20.236Z,5.03
2022-08-27T10:04:51.136Z,5.68
2022-08-27T10:06:53.491Z,6.43
2022-08-27T10:09:05.180Z,5.83
2022-08-27T10:11:26.019Z,4.97
2022-08-27T10:13:40.617Z,5.05
2022-08-27T10:16:27.433Z,6.30
2022-08-27T10:18:50.863Z,5.30
2022-08-27T10:23:18.757Z,5.07
2022-08-27T10:25:49.839Z,7.70
2022-08-27T10:28:02.124Z,6.85
2022-08-27T10:30:07.515Z,6.60
2022-08-27T10:32:35.359Z,6.50
2022-08-27T10:34:57.154Z,5.78
2022-08-27T10:37:22.626Z,8.90
2022-08-27T10:39:42.872Z,5.53
2022-08-27T10:42:02.741Z,6.13
2022-08-27T10:44:10.088Z,5.80
2022-08-27T10:46:29.818Z,4.95
2022-08-27T10:48:52.332Z,6.63
2022-08-27T10:51:19.854Z,5.07
2022-08-27T10:53:34.450Z,5.22
2022-08-27T10:55:42.900Z,6.38
2022-08-27T10:58:00.863Z,5.50
2022-08-27T11:00:21.256Z,5.50
2022-08-27T11:02:48.025Z,4.80
2022-08-27T11:05:00.813Z,5.35
2022-08-27T11:07:18.049Z,7.10
2022-08-27T11:09:27.148Z,5.63
2022-08-27T11:14:33.033Z,5.85
2022-08-27T11:16:45.444Z,4.60
2022-08-27T11:19:02.806Z,4.72
2022-08-27T11:21:16.782Z,5.97
2022-08-27T11:23:25.433Z,6.80
2022-08-27T11:25:43.141Z,7.00
2022-08-27T11:27:48.585Z,6.25
2022-08-27T11:30:02.734Z,5.07
2022-08-27T11:32:37.985Z,4.78
2022-08-27T11:35:03.302Z,5.00
2022-08-27T11:37:08.163Z,4.20
2022-08-27T11:39:38.930Z,4.82
2022-08-27T11:42:02.190Z,5.78
2022-08-27T11:46:08.621Z,5.03
2022-08-27T11:48:18.976Z,4.10
2022-08-27T11:50:22.550Z,5.10
2022-08-27T11:52:32.881Z,4.32
2022-08-27T11:54:51.071Z,4.30
2022-08-27T11:56:52.885Z,5.60
2022-08-27T11:58:55.034Z,5.20
2022-08-27T12:01:01.010Z,4.80
2022-08-27T12:03:28.325Z,10.10
2022-08-27T12:05:35.651Z,7.72
2022-08-27T12:07:40.592Z,4.07
2022-08-27T12:10:12.778Z,4.78
2022-08-27T12:12:23.987Z,6.78
2022-08-27T12:14:46.209Z,11.45
2022-08-27T12:16:47.976Z,5.50
2022-08-27T12:19:14.962Z,3.53
2022-08-27T12:21:48.430Z,3.97
2022-08-27T12:24:00.521Z,5.75
2022-08-27T12:26:25.309Z,4.90
2022-08-27T12:28:28.327Z,5.07
2022-08-27T12:30:38.618Z,5.75
2022-08-27T12:32:46.351Z,5.53
2022-08-27T12:35:02.923Z,4.85
2022-08-27T12:37:07.618Z,5.07
2022-08-27T12:39:16.348Z,5.50
2022-08-27T12:41:44.734Z,4.25
2022-08-27T12:43:46.816Z,5.20
2022-08-27T12:45:50.161Z,5.07
2022-08-27T12:47:55.901Z,4.97
2022-08-27T12:50:01.646Z,4.75
2022-08-27T12:52:20.167Z,6.50
2022-08-27T12:54:42.956Z,4.50
2022-08-27T12:57:15.679Z,4.50
2022-08-27T12:59:35.786Z,4.10
2022-08-27T13:02:01.238Z,6.65
2022-08-27T13:04:05.400Z,3.65
2022-08-27T13:06:33.177Z,7.65
2022-08-27T13:08:36.163Z,3.55
2022-08-27T13:10:37.933Z,4.43
2022-08-27T13:12:40.375Z,5.13
2022-08-27T13:14:42.208Z,6.72
2022-08-27T13:16:51.832Z,5.00
2022-08-27T13:18:54.403Z,5.93
2022-08-27T13:23:24.093Z,4.05
2022-08-27T13:25:35.917Z,5.93
2022-08-27T13:27:37.925Z,5.28
2022-08-27T13:29:41.181Z,4.57
2022-08-27T13:31:43.703Z,5.18
2022-08-27T13:35:48.060Z,3.58
2022-08-27T13:37:53.462Z,5.57
2022-08-27T13:39:57.059Z,4.32
2022-08-27T13:42:02.729Z,4.00
2022-08-27T13:44:16.444Z,5.40
2022-08-27T13:46:26.466Z,4.72
2022-08-27T13:48:28.924Z,4.43
2022-08-27T13:50:32.871Z,5.03
2022-08-27T13:52:57.585Z,4.03
2022-08-27T13:55:07.903Z,4.30
2022-08-27T13:57:11.310Z,5.30
2022-08-27T13:59:15.991Z,3.42
2022-08-27T14:01:31.296Z,4.18
2022-08-27T14:03:39.114Z,6.43
2022-08-27T14:05:47.983Z,3.28
2022-08-27T14:08:01.849Z,5.18
2022-08-27T14:10:21.601Z,4.97
2022-08-27T14:12:32.940Z,7.40
2022-08-27T14:14:41.213Z,4.63
2022-08-27T14:16:43.096Z,6.25
2022-08-27T14:19:04.001Z,5.03
2022-08-27T14:21:05.966Z,3.90
2022-08-27T14:23:07.816Z,3.72
2022-08-27T14:25:09.628Z,4.17
2022-08-27T14:27:14.625Z,5.23
2022-08-27T14:29:17.114Z,4.40
2022-08-27T14:31:18.990Z,3.10
2022-08-27T14:33:21.745Z,4.78
2022-08-27T14:37:27.504Z,3.83
2022-08-27T14:39:29.407Z,5.50
2022-08-27T14:41:31.344Z,3.33
2022-08-27T14:43:35.276Z,3.85
2022-08-27T14:45:39.878Z,5.43
2022-08-27T14:47:42.427Z,5.03
2022-08-27T14:51:49.083Z,3.95
2022-08-27T14:55:54.586Z,7.57
2022-08-27T14:57:56.475Z,3.45
2022-08-27T14:59:58.394Z,4.18
2022-08-27T15:02:01.876Z,4.90
2022-08-27T15:04:04.569Z,5.03
2022-08-27T15:08:11.780Z,5.90
2022-08-27T15:10:15.728Z,3.95
2022-08-27T15:12:25.941Z,4.93
2022-08-27T15:14:31.911Z,4.60
2022-08-27T15:16:39.889Z,4.25
2022-08-27T15:18:41.792Z,4.68
2022-08-27T15:20:43.806Z,3.90
2022-08-27T15:22:46.856Z,4.90
2022-08-27T15:24:53.721Z,4.97
2022-08-27T15:26:59.942Z,3.13
2022-08-27T15:29:06.192Z,4.35
2022-08-27T15:31:08.330Z,4.18
2022-08-27T15:33:10.305Z,4.13
2022-08-27T15:35:15.504Z,4.32
2022-08-27T15:37:17.330Z,4.60
2022-08-27T15:39:19.102Z,3.25
2022-08-27T15:41:21.373Z,5.37
2022-08-27T15:43:24.579Z,4.45
2022-08-27T15:45:27.667Z,4.97
2022-08-27T15:47:29.669Z,4.68
2022-08-27T15:49:31.484Z,4.38
2022-08-27T15:51:34.473Z,4.30
2022-08-27T15:53:38.410Z,4.85
2022-08-27T15:55:43.042Z,4.28
2022-08-27T15:57:44.819Z,4.70
2022-08-27T15:59:47.839Z,3.53
2022-08-27T16:01:49.926Z,7.80
2022-08-27T16:03:52.547Z,3.65
2022-08-27T16:07:56.154Z,3.90
2022-08-27T16:09:58.400Z,3.85
2022-08-27T16:12:00.949Z,4.47
2022-08-27T16:14:03.372Z,5.35
2022-08-27T16:16:07.231Z,5.60
2022-08-27T16:18:10.476Z,4.65
2022-08-27T16:20:15.709Z,4.68
2022-08-27T16:22:17.530Z,6.07
2022-08-27T16:24:21.287Z,6.40
2022-08-27T16:26:23.442Z,4.30
2022-08-27T16:28:25.588Z,4.05
2022-08-27T16:30:27.784Z,4.05
2022-08-27T16:32:32.187Z,3.78
2022-08-27T16:34:34.195Z,4.97
2022-08-27T16:36:35.956Z,7.95
2022-08-27T16:38:37.898Z,5.50
2022-08-27T16:40:43.962Z,6.60
2022-08-27T16:42:47.990Z,6.38
2022-08-27T16:44:49.822Z,6.38
2022-08-27T16:46:51.776Z,5.17
2022-08-27T16:49:12.305Z,5.70
2022-08-27T16:51:24.401Z,3.60
2022-08-27T16:53:26.443Z,2.85
2022-08-27T16:55:28.567Z,4.82
2022-08-27T16:57:30.404Z,6.15
2022-08-27T16:59:32.250Z,5.70
2022-08-27T17:01:34.437Z,6.83
2022-08-27T17:04:07.010Z,5.70
2022-08-27T17:06:04.673Z,7.95
2022-08-27T17:08:13.482Z,11.02
2022-08-27T17:10:18.276Z,14.82
2022-08-27T17:12:22.160Z,13.57
2022-08-27T17:14:24.524Z,11.93
2022-08-27T17:16:30.305Z,12.40
2022-08-27T17:18:34.043Z,12.93
2022-08-27T17:20:37.429Z,12.45
2022-08-27T17:22:39.311Z,12.10
2022-08-27T17:24:41.444Z,12.43
2022-08-27T17:26:43.553Z,11.13
2022-08-27T17:28:46.247Z,11.45
2022-08-27T17:32:50.446Z,12.40
2022-08-27T17:34:52.404Z,10.05
2022-08-27T17:36:54.668Z,8.00
2022-08-27T17:38:57.445Z,7.65
2022-08-27T17:43:04.705Z,11.02
2022-08-27T17:45:07.234Z,9.32
2022-08-27T17:47:09.384Z,9.70
2022-08-27T17:49:11.196Z,8.57
2022-08-27T17:51:13.366Z,9.23
2022-08-27T17:53:15.228Z,11.98
2022-08-27T17:55:17.184Z,8.73
2022-08-27T17:57:24.867Z,9.32
2022-08-27T17:59:26.756Z,9.32
2022-08-27T18:01:31.771Z,10.77
2022-08-27T18:03:44.310Z,10.15
2022-08-27T18:05:49.574Z,10.10
2022-08-27T18:07:52.382Z,9.43
2022-08-27T18:09:55.334Z,9.48
2022-08-27T18:11:58.374Z,10.18
2022-08-27T18:14:04.755Z,10.30
2022-08-27T18:16:07.431Z,11.57
2022-08-27T18:18:10.409Z,10.65
2022-08-27T18:20:14.106Z,9.90
2022-08-27T18:22:15.891Z,10.70
2022-08-27T18:24:17.674Z,9.45
2022-08-27T18:26:21.574Z,11.15
2022-08-27T18:28:23.629Z,11.55
2022-08-27T18:30:26.065Z,10.85
2022-08-27T18:32:28.206Z,11.57
2022-08-27T18:34:30.123Z,11.60
2022-08-27T18:36:32.036Z,9.73
2022-08-27T18:38:33.838Z,10.05
2022-08-27T18:40:45.146Z,11.57
2022-08-27T18:42:47.414Z,10.75
2022-08-27T18:44:50.082Z,10.43
2022-08-27T18:46:51.943Z,10.38
2022-08-27T18:48:53.750Z,10.63
2022-08-27T18:50:58.808Z,13.03
2022-08-27T18:53:02.194Z,10.30
2022-08-27T18:55:07.881Z,10.10
2022-08-27T18:57:09.667Z,12.27
2022-08-27T18:59:13.035Z,10.30
2022-08-27T19:01:19.221Z,12.23
2022-08-27T19:03:33.443Z,10.90
2022-08-27T19:05:35.250Z,9.48
2022-08-27T19:07:37.973Z,10.88
2022-08-27T19:09:39.795Z,11.25
2022-08-27T19:11:42.281Z,11.47
2022-08-27T19:13:44.429Z,10.07
2022-08-27T19:16:04.775Z,9.05
2022-08-27T19:18:09.123Z,10.00
2022-08-27T19:20:11.598Z,10.10
2022-08-27T19:22:13.448Z,12.10
2022-08-27T19:24:15.771Z,11.33
2022-08-27T19:26:23.818Z,9.82
2022-08-27T19:28:30.170Z,11.15
2022-08-27T19:30:31.988Z,13.95
2022-08-27T19:32:33.967Z,10.98
2022-08-27T19:34:35.757Z,10.75
2022-08-27T19:36:42.042Z,15.90
2022-08-27T19:38:45.102Z,12.50
2022-08-27T19:40:46.875Z,11.77
2022-08-27T19:42:48.755Z,14.13
2022-08-27T19:44:50.678Z,13.73
2022-08-27T19:46:55.758Z,12.75
2022-08-27T19:48:57.971Z,16.48
2022-08-27T19:50:59.937Z,15.25
2022-08-27T19:53:01.902Z,13.93
2022-08-27T19:55:13.617Z,16.90
2022-08-27T19:57:16.365Z,12.80
2022-08-27T19:59:21.768Z,15.50
2022-08-27T20:01:23.770Z,13.73
2022-08-27T20:03:26.443Z,14.00
2022-08-27T20:05:28.289Z,12.93
2022-08-27T20:07:30.147Z,10.93
2022-08-27T20:09:36.909Z,14.10
2022-08-27T20:11:38.753Z,10.60
2022-08-27T20:13:50.798Z,8.83
2022-08-27T20:15:52.861Z,7.80
2022-08-27T20:17:55.146Z,6.13
2022-08-27T20:19:58.540Z,5.07
2022-08-27T20:22:00.277Z,4.30
2022-08-27T20:24:02.486Z,4.68
2022-08-27T20:26:04.308Z,4.15
2022-08-27T20:28:28.247Z,5.00
2022-08-27T20:30:30.239Z,6.28
2022-08-27T20:34:34.939Z,5.07
2022-08-27T20:36:37.228Z,5.05
2022-08-27T20:38:39.568Z,4.85
2022-08-27T20:40:41.621Z,4.43
2022-08-27T20:42:44.414Z,8.48
2022-08-27T20:46:52.144Z,5.87
2022-08-27T20:48:56.468Z,5.15
2022-08-27T20:50:58.282Z,4.55
2022-08-27T20:53:00.698Z,5.90
2022-08-27T20:55:03.374Z,5.38
2022-08-27T20:57:05.387Z,7.00
2022-08-27T20:59:25.697Z,5.93
2022-08-27T21:01:27.645Z,5.28
2022-08-27T21:03:29.560Z,4.28
2022-08-27T21:05:34.268Z,5.00
2022-08-27T21:07:36.435Z,3.97
2022-08-27T21:09:56.225Z,4.10
2022-08-27T21:11:59.801Z,7.57
2022-08-27T21:14:01.625Z,4.20
2022-08-27T21:16:03.876Z,5.70
2022-08-27T21:18:06.088Z,7.05
2022-08-27T21:20:12.864Z,7.22
2022-08-27T21:22:14.705Z,6.50
2022-08-27T21:24:18.270Z,7.57
2022-08-27T21:26:22.780Z,10.38
2022-08-27T21:28:24.569Z,9.55
2022-08-27T21:30:27.056Z,12.10
2022-08-27T21:32:28.933Z,12.13
2022-08-27T21:34:31.134Z,10.27
2022-08-27T21:36:33.636Z,10.27
2022-08-27T21:38:35.459Z,11.85
2022-08-27T21:40:37.280Z,11.17
2022-08-27T21:42:39.428Z,9.02
2022-08-27T21:44:41.296Z,7.55
2022-08-27T21:46:43.095Z,10.43
2022-08-27T21:48:45.268Z,10.63
2022-08-27T21:50:47.977Z,9.00
2022-08-27T21:52:51.469Z,9.70
2022-08-27T21:54:53.336Z,7.55
2022-08-27T21:56:55.124Z,9.37
2022-08-27T21:58:56.983Z,7.95
2022-08-27T22:00:59.205Z,8.83
2022-08-27T22:03:01.131Z,9.32
2022-08-27T22:05:03.116Z,7.57
2022-08-27T22:07:05.022Z,6.47
2022-08-27T22:09:07.014Z,8.03
2022-08-27T22:11:10.041Z,5.00
2022-08-27T22:13:12.215Z,7.25
2022-08-27T22:15:14.175Z,6.13
2022-08-27T22:17:16.008Z,5.23
2022-08-27T22:19:18.277Z,8.60
2022-08-27T22:21:20.262Z,7.18
2022-08-27T22:23:22.096Z,5.97
2022-08-27T22:25:24.112Z,6.28
2022-08-27T22:27:26.747Z,6.65
2022-08-27T22:29:28.552Z,4.97
2022-08-27T22:31:33.154Z,4.43
2022-08-27T22:33:35.040Z,4.07
2022-08-27T22:35:36.948Z,4.93
2022-08-27T22:37:39.007Z,4.50
2022-08-27T22:39:40.776Z,9.10
2022-08-27T22:41:43.943Z,5.90
2022-08-27T22:43:50.511Z,5.72
2022-08-27T22:45:58.603Z,5.10
2022-08-27T22:48:00.732Z,4.22
2022-08-27T22:50:04.070Z,5.03
2022-08-27T22:52:05.950Z,5.75
2022-08-27T22:54:08.136Z,4.70
2022-08-27T22:56:09.990Z,5.18
2022-08-27T22:58:13.591Z,7.90
2022-08-27T23:00:41.820Z,3.85
2022-08-27T23:02:43.604Z,5.32
2022-08-27T23:04:55.116Z,3.33
2022-08-27T23:07:01.045Z,5.53
2022-08-27T23:09:02.933Z,3.90
2022-08-27T23:11:04.837Z,6.00
2022-08-27T23:13:07.648Z,3.20
2022-08-27T23:15:10.822Z,3.83
2022-08-27T23:17:12.596Z,3.55
2022-08-27T23:19:14.424Z,2.95
2022-08-27T23:21:16.967Z,2.88
2022-08-27T23:23:20.220Z,3.03
2022-08-27T23:25:43.348Z,3.67
2022-08-27T23:27:45.522Z,3.35
2022-08-27T23:29:48.908Z,2.87
2022-08-27T23:31:52.432Z,2.90
2022-08-27T23:33:55.959Z,3.95
2022-08-27T23:35:57.827Z,3.33
2022-08-27T23:38:00.936Z,3.05
2022-08-27T23:40:03.765Z,5.87
2022-08-27T23:42:06.048Z,4.40
2022-08-27T23:44:08.059Z,4.88
2022-08-27T23:46:10.415Z,5.40
2022-08-27T23:48:13.075Z,7.45
2022-08-27T23:50:15.817Z,10.95
2022-08-27T23:52:17.622Z,8.23
2022-08-27T23:54:20.508Z,8.53
2022-08-27T23:56:22.361Z,7.38
2022-08-27T23:58:32.751Z,6.80
